Bauang Weathercam more information Bauang Weathercam


Rain radar more information rain snow radar


Visit other webcamsites:

Youtube



Nearby METAR Reports

   
RPLC - Angeles/Pampanga, Philippines
Distance from station: S 165 km
Updated: 08-02-2023 08:00
Mostly Cloudy  
Mostly Cloudy  
   Wind: NNW 2.1 m/s
Wind: NNW 2.1 m/s
Temperature: 28°C
Heat Index: 30°C
Dew Point: 21°C
Humidity: 66%
Barometer: 1014 hPa
Clouds: Mostly Cloudy
Visibility: More than 10 km
Cloud details: Partly Cloudy 609.6 m,
Mostly Cloudy 3048 m
RPLC 080000Z 34004KT 9999 SCT020 BKN100 28/21 Q1014 NOSIG RMK A2994
RPLI - Laoag Intl(Ph-Ar, Philippines
Distance from station: N 172 km
Updated: 08-02-2023 08:00
Haze, Mostly Cloudy  
Haze, Mostly Cloudy  
   Wind: East 1.5 m/s
Wind: East 1.5 m/s
Temperature: 25°C
Dew Point: 23°C
Humidity: 89%
Barometer: 1012 hPa
Clouds: Mostly Cloudy
Visibility: 5 km
Cloud details: Few Clouds 548.6 m,
Mostly Cloudy 8839.2 m
RPLI 080000Z 10003KT 5000 HZ FEW018 BKN290 25/23 Q1012 NOSIG RMK A2988
RPLB - Olongapo/Subic, Philippines
Distance from station: S 203 km
Updated: 08-02-2023 08:00
Mostly Cloudy  
Mostly Cloudy  
   Wind: East 3.6 m/s
Wind: East 3.6 m/s
Temperature: 26°C
Dew Point: 21°C
Humidity: 74%
Barometer: 1013 hPa
Clouds: Mostly Cloudy
Visibility: More than 10 km
Cloud details: Few Clouds 609.6 m,
Mostly Cloudy 9144 m
RPLB 080000Z 08007KT 9999 FEW020 BKN300 26/21 Q1013 NOSIG RMK A2991
RPLL - Ninoy Aquino Int, Philippines
Distance from station: SSE 246 km
Updated: 08-02-2023 08:00
Mostly Cloudy  
Mostly Cloudy  
   Wind: varies 1 m/s
Wind: varies 1 m/s
Temperature: 27°C
Heat Index: 29°C
Dew Point: 22°C
Humidity: 74%
Barometer: 1013 hPa
Clouds: Mostly Cloudy
Visibility: More than 10 km
Cloud details: Few Clouds 762 m,
Mostly Cloudy 9144 m
RPLL 080000Z VRB02KT 9999 FEW025 BKN300 27/22 Q1013 NOSIG RMK A2991
RPMR - Romblon/Tablas I, Philippines
Distance from station: SSE 498 km
Updated: 08-02-2023 08:00
Overcast  
Overcast  
   Wind: NNW 1.5 m/s
Wind: NNW 1.5 m/s
Temperature: 26°C
Dew Point: 21°C
Humidity: 74%
Barometer: 1012 hPa
Clouds: Overcast
Visibility: More than 10 km
Cloud details: Partly Cloudy 518.2 m,
Overcast 2438.4 m
RPMR 080000Z 33003KT 9999 SCT017 OVC080 26/21 Q1012 RMK A2988
RPVP - Puerto Princesa, Philippines
Distance from station: SSW 778 km
Updated: 08-02-2023 08:00
Partly Cloudy  
Partly Cloudy  
   Wind: West 4.1 m/s
Wind: West 4.1 m/s
Temperature: 25°C
Dew Point: 24°C
Humidity: 94%
Barometer: 1012 hPa
Clouds: Partly Cloudy
Visibility: More than 10 km
Cloud details: Few Clouds 579.1 m,
Partly Cloudy 7620 m
RPVP 080000Z 27008KT 9999 FEW019 SCT250 25/24 Q1012 RMK A2988
RPVM - Mactan-Cebu, Philippines
Distance from station: SSE 800 km
Updated: 08-02-2023 08:00
Mostly Cloudy  
Mostly Cloudy  
   Wind: North 5.7 m/s
Wind: North 5.7 m/s
Temperature: 27°C
Heat Index: 29°C
Dew Point: 23°C
Humidity: 79%
Barometer: 1012 hPa
Clouds: Mostly Cloudy
Visibility: More than 10 km
Cloud details: Few Clouds 609.6 m,
Mostly Cloudy 7620 m
RPVM 080000Z 36011KT 9999 FEW020 BKN250 27/23 Q1012 NOSIG RMK A2988
RPMZ - Zamboanga (civ/A, Philippines
Distance from station: S 1090 km
Updated: 08-02-2023 08:00
Mostly Cloudy  
Mostly Cloudy  
   Wind: Calm
Wind: Calm
Temperature: 26°C
Dew Point: 24°C
Humidity: 89%
Barometer: 1011 hPa
Clouds: Mostly Cloudy
Visibility: More than 10 km
Cloud details: Few Clouds 518.2 m,
Mostly Cloudy 2743.2 m
RPMZ 080000Z 00000KT 9999 FEW017 BKN090 26/24 Q1011 RMK A2985
RPMD - Davao/Francisco, Philippines
Distance from station: SSE 1198 km
Updated: 08-02-2023 08:00
Partly Cloudy  
Partly Cloudy  
   Wind: North 2.6 m/s
Wind: North 2.6 m/s
Temperature: 26°C
Dew Point: 22°C
Humidity: 79%
Barometer: 1011 hPa
Clouds: Partly Cloudy
Visibility: More than 10 km
Cloud details: Few Clouds 457.2 m,
Partly Cloudy 7924.8 m
RPMD 080000Z 01005KT 320V040 9999 FEW015 SCT260 26/22 Q1011 RMK A2985

Script developed by  Saratoga-weather.org Adapted for the template by  Weerstation Leuven

You find our weather info also at:

Ambient Weather

WeatherCloud

Philippine Atmospheric, Geophysical and Astronomical Services Administration